• Join FlightAware (Why Join?)
  • Login
  • US Flag GB Flag 
06:12 EST


 

Airport Tracker/Info


-or-


 

Live Flight TrackerFlight Track Log ✈ JBU1329 ✈ 19-Apr-2013 ✈ KBOS - KBWI

Flight Track Log - Related Links

Times and Time Zones

All times are in EDT time to prevent confusion due to time zone crossing. See the JBU1329 flight status page for this flight to view local times or setup timezone preferences in your user account.

Time Position Orientation Groundspeed Altitude Reporting Facility
EDT Latitude Longitude Course Direction KTS MPH feet Rate Location/Type
08:19 42.3500 -71.0167 240° Southwest 155 178 800  Level KA90
08:19 42.3500 -71.0167 240° Southwest 136 157 1,700 2,040 Climbing KA90
08:20 42.3167 -70.9500 124° Southeast 221 254 3,500 2,220 Climbing KA90
08:21 42.3247 -70.8592 83° East 321 369 6,200 3,120 Climbing Boston Center
08:22 42.3169 -70.7553 96° East 285 328 9,700 2,520 Climbing Boston Center
08:23 42.2482 -70.7944 228° Southwest  Level FlightAware Approximate
08:23 42.2436 -70.7294 165° South 235 270 11,300  Level Boston Center
08:24 42.1991 -70.8967 240° Southwest  Level FlightAware Approximate
08:24 42.1822 -70.8011 221° Southwest 209 241 13,800  Level Boston Center
08:25 42.1672 -70.9275 261° West 245 282 16,200 2,400 Climbing Boston Center
08:26 42.1522 -71.0511 261° West 287 330 18,600 2,280 Climbing Boston Center
08:27 42.1350 -71.1831 260° West 332 382 20,800 2,040 Climbing Boston Center
08:28 42.1197 -71.3206 262° West 361 415 22,800 1,920 Climbing Boston Center
08:29 42.1022 -71.4581 260° West 374 430 24,700 1,680 Climbing Boston Center
08:30 42.0825 -71.5981 259° West 379 436 26,300 1,440 Climbing Boston Center
08:31 42.0628 -71.7439 260° West 392 451 27,600 1,260 Climbing Boston Center
08:32 42.0428 -71.8950 260° West 397 457 28,900 1,140 Climbing Boston Center
08:33 42.0247 -72.0489 261° West 413 475 29,900 1,320 Climbing Boston Center
08:34 42.0042 -72.1997 260° West 418 481 31,500 1,020 Climbing Boston Center
08:35 41.9836 -72.3536 260° West 418 481 32,000 240 Climbing Boston Center
08:36 41.9628 -72.5156 260° West 431 496 32,000  Level Boston Center
08:38 41.9292 -72.6997 256° West 431 496 32,000  Level Boston Center
08:39 41.8453 -72.8192 227° Southwest 426 490 32,000  Level Boston Center
08:40 41.7678 -72.9300 227° Southwest 432 497 32,000  Level Boston Center
08:41 41.6797 -73.0461 225° Southwest 443 510 32,000  Level Boston Center
08:42 41.5978 -73.1592 226° Southwest 443 510 32,000  Level Boston Center
08:43 41.5075 -73.2800 225° Southwest 430 495 32,000  Level Boston Center
08:45 41.3275 -73.5203 225° Southwest 418 481 32,000  Level New York Center
08:46 41.2475 -73.6411 229° Southwest 437 503 32,000  Level New York Center
08:47 41.1736 -73.7675 232° Southwest 437 503 32,000  Level New York Center
08:48 41.0975 -73.8933 231° Southwest 442 509 32,000  Level New York Center
08:49 41.0253 -74.0194 233° Southwest 437 503 32,000  Level New York Center
08:50 40.9489 -74.1419 230° Southwest 437 503 32,000 -780 Level New York Center
08:51 40.8814 -74.2483 230° Southwest 437 503 30,500 -1,920 Descending New York Center
08:52 40.8089 -74.3708 232° Southwest 430 495 28,200 -1,260 Descending New York Center
08:53 40.7386 -74.4875 232° Southwest 425 489 28,000 -120 Descending New York Center
08:54 40.6683 -74.6014 231° Southwest 419 482 28,000 -120 Level New York Center
08:55 40.5956 -74.7175 230° Southwest 419 482 27,800 -840 Descending New York Center
08:56 40.5011 -74.7994 213° Southwest 414 476 26,400 -1,680 Descending New York Center
08:57 40.4128 -74.8869 217° Southwest 409 471 24,500 -1,740 Descending New York Center
08:58 40.3506 -74.9978 234° Southwest 394 453 22,900 -1,740 Descending New York Center
08:59 40.2836 -75.1133 233° Southwest 382 440 21,100 -1,680 Descending New York Center
09:00 40.2258 -75.2158 234° Southwest 368 423 19,600 -1,440 Descending New York Center
09:01 40.1700 -75.3072 231° Southwest 363 418 18,300 -1,140 Descending New York Center
09:02 40.1078 -75.4117 232° Southwest 344 396 17,400 -660 Descending New York Center
09:03 40.0506 -75.4867 225° Southwest 330 380 17,000 -240 Descending New York Center
09:04 39.9931 -75.5694 228° Southwest 299 344 17,000 -360 Level New York Center
09:05 39.9444 -75.6336 225° Southwest 287 330 16,300 -960 Descending New York Center
09:06 39.8928 -75.7222 233° Southwest 280 322 15,100 -1,200 Descending New York Center
09:07 39.8544 -75.7925 235° Southwest 275 316 13,900 -1,380 Descending New York Center
09:08 39.8133 -75.8761 237° Southwest 268 308 12,400 -900 Descending New York Center
09:10 39.7167 -76.0500 234° Southwest 250 288 11,000 -420 Descending Potomac TRACON
09:11 39.6833 -76.1333 243° Southwest 251 289 11,000 -120 Level Potomac TRACON
09:12 39.6500 -76.2000 237° Southwest 255 293 10,800 -1,020 Descending Potomac TRACON
09:13 39.6333 -76.3000 258° West 257 296 9,000 -1,440 Descending Potomac TRACON
09:14 39.6167 -76.3833 255° West 250 288 8,000 -540 Descending Potomac TRACON
09:15 39.6000 -76.4667 255° West 252 290 8,000  Level Potomac TRACON
09:16 39.6000 -76.5500 270° West 254 292 8,000  Level Potomac TRACON
09:17 39.6167 -76.6333 285° West 226 260 8,000  Level Potomac TRACON
09:18 39.6333 -76.7167 285° West 225 259 8,000  Level Potomac TRACON
09:19 39.6333 -76.7833 270° West 206 237 8,000 -60 Level Potomac TRACON
09:20 39.6167 -76.8500 252° West 208 239 7,900 -660 Descending Potomac TRACON
09:21 39.6000 -76.9167 252° West 190 219 6,800 -1,020 Descending Potomac TRACON
09:22 39.5667 -76.9667 229° Southwest 188 216 6,000 -480 Descending Potomac TRACON
09:23 39.5333 -76.9667 180° South 206 237 6,000 -300 Level Potomac TRACON
09:24 39.4667 -76.9333 159° South 202 232 5,500 -540 Descending Potomac TRACON
09:25 39.4167 -76.9000 153° Southeast 199 229 5,000 -300 Descending Potomac TRACON
09:26 39.3667 -76.9167 194° South 206 237 5,000 -180 Level Potomac TRACON
09:27 39.3500 -76.9667 247° West 184 212 4,700 -540 Descending Potomac TRACON
09:28 39.3167 -77.0000 218° Southwest 173 199 4,000 -720 Descending Potomac TRACON
09:29 39.2667 -76.9833 166° South 151 174 3,300 -540 Descending Potomac TRACON
09:30 39.2333 -76.9667 159° South 149 171 3,000 -180 Descending Potomac TRACON
09:31 39.2000 -76.9500 159° South 165 190 3,000  Level Potomac TRACON